sensor_id;sensor_type;location;lat;lon;timestamp;P1;P2;P0
72031;PMS5003;49185;42.320;23.198;2024-01-15T00:02:12;2405.67;2405.67;2405.67
72031;PMS5003;49185;42.320;23.198;2024-01-15T00:04:38;2399.67;2399.67;2399.67
72031;PMS5003;49185;42.320;23.198;2024-01-15T00:07:04;2409.00;2409.00;2409.00
72031;PMS5003;49185;42.320;23.198;2024-01-15T00:09:30;2410.50;2410.50;2410.50
72031;PMS5003;49185;42.320;23.198;2024-01-15T00:11:55;2408.67;2408.67;2408.67
72031;PMS5003;49185;42.320;23.198;2024-01-15T00:14:21;2407.67;2407.67;2407.67
72031;PMS5003;49185;42.320;23.198;2024-01-15T00:16:46;2399.67;2399.67;2399.67
72031;PMS5003;49185;42.320;23.198;2024-01-15T00:19:12;2409.00;2409.00;2409.00
72031;PMS5003;49185;42.320;23.198;2024-01-15T00:21:37;2407.50;2407.50;2407.50
72031;PMS5003;49185;42.320;23.198;2024-01-15T00:24:03;2404.67;2404.67;2404.67
72031;PMS5003;49185;42.320;23.198;2024-01-15T00:26:28;2397.67;2397.67;2397.67
72031;PMS5003;49185;42.320;23.198;2024-01-15T00:28:54;2399.67;2399.67;2399.67
72031;PMS5003;49185;42.320;23.198;2024-01-15T00:31:19;2407.67;2407.67;2407.67
72031;PMS5003;49185;42.320;23.198;2024-01-15T00:33:45;2404.67;2404.67;2404.67
72031;PMS5003;49185;42.320;23.198;2024-01-15T00:36:11;2401.00;2401.00;2401.00
72031;PMS5003;49185;42.320;23.198;2024-01-15T00:38:36;2404.67;2404.67;2404.67
72031;PMS5003;49185;42.320;23.198;2024-01-15T00:41:01;2397.67;2397.67;2397.67
72031;PMS5003;49185;42.320;23.198;2024-01-15T00:43:27;2404.67;2404.67;2404.67
72031;PMS5003;49185;42.320;23.198;2024-01-15T00:45:52;2404.67;2404.67;2404.67
72031;PMS5003;49185;42.320;23.198;2024-01-15T00:48:18;2394.67;2394.67;2394.67
72031;PMS5003;49185;42.320;23.198;2024-01-15T00:50:43;2399.67;2399.67;2399.67
72031;PMS5003;49185;42.320;23.198;2024-01-15T00:53:08;2396.67;2396.67;2396.67
72031;PMS5003;49185;42.320;23.198;2024-01-15T00:55:34;2391.33;2391.33;2391.33
72031;PMS5003;49185;42.320;23.198;2024-01-15T00:57:59;2396.67;2396.67;2396.67
72031;PMS5003;49185;42.320;23.198;2024-01-15T01:00:24;2386.33;2386.33;2386.33
72031;PMS5003;49185;42.320;23.198;2024-01-15T01:02:50;2392.33;2392.33;2392.33
72031;PMS5003;49185;42.320;23.198;2024-01-15T01:05:15;2389.33;2389.33;2389.33
72031;PMS5003;49185;42.320;23.198;2024-01-15T01:07:40;2381.33;2381.33;2381.33
72031;PMS5003;49185;42.320;23.198;2024-01-15T01:10:06;2385.67;2385.67;2385.67
72031;PMS5003;49185;42.320;23.198;2024-01-15T01:12:32;2380.00;2380.00;2380.00
72031;PMS5003;49185;42.320;23.198;2024-01-15T01:14:57;2377.33;2377.33;2377.33
72031;PMS5003;49185;42.320;23.198;2024-01-15T01:17:22;2382.67;2382.67;2382.67
72031;PMS5003;49185;42.320;23.198;2024-01-15T01:19:49;2374.67;2374.67;2374.67
72031;PMS5003;49185;42.320;23.198;2024-01-15T01:22:14;2384.50;2384.50;2384.50
72031;PMS5003;49185;42.320;23.198;2024-01-15T01:24:40;2372.33;2372.33;2372.33
72031;PMS5003;49185;42.320;23.198;2024-01-15T01:27:05;2381.33;2381.33;2381.33
72031;PMS5003;49185;42.320;23.198;2024-01-15T01:29:31;2381.33;2381.33;2381.33
72031;PMS5003;49185;42.320;23.198;2024-01-15T01:31:56;2375.33;2375.33;2375.33
72031;PMS5003;49185;42.320;23.198;2024-01-15T01:34:21;2373.33;2373.33;2373.33
72031;PMS5003;49185;42.320;23.198;2024-01-15T01:36:47;2383.67;2383.67;2383.67
72031;PMS5003;49185;42.320;23.198;2024-01-15T01:39:12;2377.33;2377.33;2377.33
72031;PMS5003;49185;42.320;23.198;2024-01-15T01:41:38;2380.00;2380.00;2380.00
72031;PMS5003;49185;42.320;23.198;2024-01-15T01:44:04;2380.00;2380.00;2380.00
72031;PMS5003;49185;42.320;23.198;2024-01-15T01:46:29;2385.67;2385.67;2385.67
72031;PMS5003;49185;42.320;23.198;2024-01-15T01:48:55;2388.50;2388.50;2388.50
72031;PMS5003;49185;42.320;23.198;2024-01-15T01:51:24;2386.33;2386.33;2386.33
72031;PMS5003;49185;42.320;23.198;2024-01-15T01:53:50;2388.50;2388.50;2388.50
72031;PMS5003;49185;42.320;23.198;2024-01-15T01:56:16;2388.50;2388.50;2388.50
72031;PMS5003;49185;42.320;23.198;2024-01-15T01:58:43;2381.50;2381.50;2381.50
72031;PMS5003;49185;42.320;23.198;2024-01-15T02:01:10;2381.50;2381.50;2381.50
72031;PMS5003;49185;42.320;23.198;2024-01-15T02:03:36;2381.50;2381.50;2381.50
72031;PMS5003;49185;42.320;23.198;2024-01-15T02:06:02;2380.33;2380.33;2380.33
72031;PMS5003;49185;42.320;23.198;2024-01-15T02:08:27;2388.33;2388.33;2388.33
72031;PMS5003;49185;42.320;23.198;2024-01-15T02:10:53;2389.33;2389.33;2389.33
72031;PMS5003;49185;42.320;23.198;2024-01-15T02:13:18;2391.33;2391.33;2391.33
72031;PMS5003;49185;42.320;23.198;2024-01-15T02:15:45;2389.50;2389.50;2389.50
72031;PMS5003;49185;42.320;23.198;2024-01-15T02:18:10;2386.33;2386.33;2386.33
72031;PMS5003;49185;42.320;23.198;2024-01-15T02:20:36;2377.33;2377.33;2377.33
72031;PMS5003;49185;42.320;23.198;2024-01-15T02:23:08;2383.67;2383.67;2383.67
72031;PMS5003;49185;42.320;23.198;2024-01-15T02:25:38;2384.50;2384.50;2384.50
72031;PMS5003;49185;42.320;23.198;2024-01-15T02:28:05;2387.00;2387.00;2387.00
72031;PMS5003;49185;42.320;23.198;2024-01-15T02:30:31;2388.50;2388.50;2388.50
72031;PMS5003;49185;42.320;23.198;2024-01-15T02:32:56;2386.33;2386.33;2386.33
72031;PMS5003;49185;42.320;23.198;2024-01-15T02:35:22;2380.33;2380.33;2380.33
72031;PMS5003;49185;42.320;23.198;2024-01-15T02:37:47;2386.33;2386.33;2386.33
72031;PMS5003;49185;42.320;23.198;2024-01-15T02:40:13;2380.33;2380.33;2380.33
72031;PMS5003;49185;42.320;23.198;2024-01-15T02:42:38;2391.33;2391.33;2391.33
72031;PMS5003;49185;42.320;23.198;2024-01-15T02:45:03;2385.67;2385.67;2385.67
72031;PMS5003;49185;42.320;23.198;2024-01-15T02:47:30;2391.00;2391.00;2391.00
72031;PMS5003;49185;42.320;23.198;2024-01-15T02:49:55;2396.67;2396.67;2396.67
72031;PMS5003;49185;42.320;23.198;2024-01-15T02:52:21;2396.67;2396.67;2396.67
72031;PMS5003;49185;42.320;23.198;2024-01-15T02:54:46;2392.33;2392.33;2392.33
72031;PMS5003;49185;42.320;23.198;2024-01-15T02:57:11;2393.67;2393.67;2393.67
72031;PMS5003;49185;42.320;23.198;2024-01-15T02:59:37;2393.67;2393.67;2393.67
72031;PMS5003;49185;42.320;23.198;2024-01-15T03:02:02;2402.33;2402.33;2402.33
72031;PMS5003;49185;42.320;23.198;2024-01-15T03:04:28;2396.67;2396.67;2396.67
72031;PMS5003;49185;42.320;23.198;2024-01-15T03:06:53;2396.67;2396.67;2396.67
72031;PMS5003;49185;42.320;23.198;2024-01-15T03:09:18;2388.33;2388.33;2388.33
72031;PMS5003;49185;42.320;23.198;2024-01-15T03:11:44;2393.67;2393.67;2393.67
72031;PMS5003;49185;42.320;23.198;2024-01-15T03:14:09;2383.67;2383.67;2383.67
72031;PMS5003;49185;42.320;23.198;2024-01-15T03:16:34;2388.33;2388.33;2388.33
72031;PMS5003;49185;42.320;23.198;2024-01-15T03:19:00;2377.33;2377.33;2377.33
72031;PMS5003;49185;42.320;23.198;2024-01-15T03:21:26;2375.00;2375.00;2375.00
72031;PMS5003;49185;42.320;23.198;2024-01-15T03:23:51;2372.33;2372.33;2372.33
72031;PMS5003;49185;42.320;23.198;2024-01-15T03:26:18;2364.00;2364.00;2364.00
72031;PMS5003;49185;42.320;23.198;2024-01-15T03:28:43;2358.33;2358.33;2358.33
72031;PMS5003;49185;42.320;23.198;2024-01-15T03:31:08;2353.33;2353.33;2353.33
72031;PMS5003;49185;42.320;23.198;2024-01-15T03:33:34;2361.33;2361.33;2361.33
72031;PMS5003;49185;42.320;23.198;2024-01-15T03:35:59;2362.33;2362.33;2362.33
72031;PMS5003;49185;42.320;23.198;2024-01-15T03:38:26;2362.33;2362.33;2362.33
72031;PMS5003;49185;42.320;23.198;2024-01-15T03:40:53;2356.00;2356.00;2356.00
72031;PMS5003;49185;42.320;23.198;2024-01-15T03:43:18;2361.33;2361.33;2361.33
72031;PMS5003;49185;42.320;23.198;2024-01-15T03:45:43;2353.33;2353.33;2353.33
72031;PMS5003;49185;42.320;23.198;2024-01-15T03:48:09;2358.33;2358.33;2358.33
72031;PMS5003;49185;42.320;23.198;2024-01-15T03:50:34;2357.00;2357.00;2357.00
72031;PMS5003;49185;42.320;23.198;2024-01-15T03:52:59;2357.00;2357.00;2357.00
72031;PMS5003;49185;42.320;23.198;2024-01-15T03:55:25;2358.33;2358.33;2358.33
72031;PMS5003;49185;42.320;23.198;2024-01-15T03:57:50;2353.33;2353.33;2353.33
72031;PMS5003;49185;42.320;23.198;2024-01-15T04:00:16;2359.33;2359.33;2359.33
72031;PMS5003;49185;42.320;23.198;2024-01-15T04:02:41;2361.33;2361.33;2361.33
72031;PMS5003;49185;42.320;23.198;2024-01-15T04:05:07;2356.33;2356.33;2356.33
72031;PMS5003;49185;42.320;23.198;2024-01-15T04:07:32;2362.33;2362.33;2362.33
72031;PMS5003;49185;42.320;23.198;2024-01-15T04:09:57;2364.33;2364.33;2364.33
72031;PMS5003;49185;42.320;23.198;2024-01-15T04:12:23;2364.33;2364.33;2364.33
72031;PMS5003;49185;42.320;23.198;2024-01-15T04:14:48;2364.33;2364.33;2364.33
72031;PMS5003;49185;42.320;23.198;2024-01-15T04:17:13;2365.00;2365.00;2365.00
72031;PMS5003;49185;42.320;23.198;2024-01-15T04:19:39;2367.33;2367.33;2367.33
72031;PMS5003;49185;42.320;23.198;2024-01-15T04:22:04;2361.33;2361.33;2361.33
72031;PMS5003;49185;42.320;23.198;2024-01-15T04:24:31;2367.33;2367.33;2367.33
72031;PMS5003;49185;42.320;23.198;2024-01-15T04:26:57;2370.50;2370.50;2370.50
72031;PMS5003;49185;42.320;23.198;2024-01-15T04:29:22;2358.33;2358.33;2358.33
72031;PMS5003;49185;42.320;23.198;2024-01-15T04:31:47;2364.33;2364.33;2364.33
72031;PMS5003;49185;42.320;23.198;2024-01-15T04:34:13;2364.33;2364.33;2364.33
72031;PMS5003;49185;42.320;23.198;2024-01-15T04:36:39;2361.33;2361.33;2361.33
72031;PMS5003;49185;42.320;23.198;2024-01-15T04:39:04;2365.50;2365.50;2365.50
72031;PMS5003;49185;42.320;23.198;2024-01-15T04:41:30;2356.33;2356.33;2356.33
72031;PMS5003;49185;42.320;23.198;2024-01-15T04:43:56;2364.33;2364.33;2364.33
72031;PMS5003;49185;42.320;23.198;2024-01-15T04:46:21;2361.00;2361.00;2361.00
72031;PMS5003;49185;42.320;23.198;2024-01-15T04:48:46;2366.33;2366.33;2366.33
72031;PMS5003;49185;42.320;23.198;2024-01-15T04:51:12;2361.33;2361.33;2361.33
72031;PMS5003;49185;42.320;23.198;2024-01-15T04:53:37;2362.33;2362.33;2362.33
72031;PMS5003;49185;42.320;23.198;2024-01-15T04:56:03;2364.33;2364.33;2364.33
72031;PMS5003;49185;42.320;23.198;2024-01-15T04:58:28;2367.00;2367.00;2367.00
72031;PMS5003;49185;42.320;23.198;2024-01-15T05:00:54;2374.67;2374.67;2374.67
72031;PMS5003;49185;42.320;23.198;2024-01-15T05:03:19;2375.33;2375.33;2375.33
72031;PMS5003;49185;42.320;23.198;2024-01-15T05:05:45;2374.67;2374.67;2374.67
72031;PMS5003;49185;42.320;23.198;2024-01-15T05:08:10;2375.33;2375.33;2375.33
72031;PMS5003;49185;42.320;23.198;2024-01-15T05:10:35;2375.33;2375.33;2375.33
72031;PMS5003;49185;42.320;23.198;2024-01-15T05:13:01;2375.33;2375.33;2375.33
72031;PMS5003;49185;42.320;23.198;2024-01-15T05:15:26;2377.33;2377.33;2377.33
72031;PMS5003;49185;42.320;23.198;2024-01-15T05:17:52;2378.33;2378.33;2378.33
72031;PMS5003;49185;42.320;23.198;2024-01-15T05:20:17;2372.33;2372.33;2372.33
72031;PMS5003;49185;42.320;23.198;2024-01-15T05:22:42;2373.33;2373.33;2373.33
72031;PMS5003;49185;42.320;23.198;2024-01-15T05:25:08;2381.33;2381.33;2381.33
72031;PMS5003;49185;42.320;23.198;2024-01-15T05:27:33;2374.67;2374.67;2374.67
72031;PMS5003;49185;42.320;23.198;2024-01-15T05:29:59;2381.33;2381.33;2381.33
72031;PMS5003;49185;42.320;23.198;2024-01-15T05:32:24;2380.33;2380.33;2380.33
72031;PMS5003;49185;42.320;23.198;2024-01-15T05:34:49;2380.33;2380.33;2380.33
72031;PMS5003;49185;42.320;23.198;2024-01-15T05:37:15;2378.33;2378.33;2378.33
72031;PMS5003;49185;42.320;23.198;2024-01-15T05:39:40;2378.33;2378.33;2378.33
72031;PMS5003;49185;42.320;23.198;2024-01-15T05:42:05;2372.33;2372.33;2372.33
72031;PMS5003;49185;42.320;23.198;2024-01-15T05:44:31;2367.33;2367.33;2367.33
72031;PMS5003;49185;42.320;23.198;2024-01-15T05:46:56;2370.33;2370.33;2370.33
72031;PMS5003;49185;42.320;23.198;2024-01-15T05:49:22;2358.33;2358.33;2358.33
72031;PMS5003;49185;42.320;23.198;2024-01-15T05:51:47;2356.33;2356.33;2356.33
72031;PMS5003;49185;42.320;23.198;2024-01-15T05:54:12;2350.33;2350.33;2350.33
72031;PMS5003;49185;42.320;23.198;2024-01-15T05:56:38;2350.33;2350.33;2350.33
72031;PMS5003;49185;42.320;23.198;2024-01-15T05:59:03;2357.00;2357.00;2357.00
72031;PMS5003;49185;42.320;23.198;2024-01-15T06:01:28;2357.00;2357.00;2357.00
72031;PMS5003;49185;42.320;23.198;2024-01-15T06:03:54;2358.33;2358.33;2358.33
72031;PMS5003;49185;42.320;23.198;2024-01-15T06:06:19;2350.33;2350.33;2350.33
72031;PMS5003;49185;42.320;23.198;2024-01-15T06:08:45;2358.33;2358.33;2358.33
72031;PMS5003;49185;42.320;23.198;2024-01-15T06:11:10;2353.33;2353.33;2353.33
72031;PMS5003;49185;42.320;23.198;2024-01-15T06:13:35;2353.33;2353.33;2353.33
72031;PMS5003;49185;42.320;23.198;2024-01-15T06:16:01;2361.33;2361.33;2361.33
72031;PMS5003;49185;42.320;23.198;2024-01-15T06:18:26;2356.33;2356.33;2356.33
72031;PMS5003;49185;42.320;23.198;2024-01-15T06:20:51;2367.33;2367.33;2367.33
72031;PMS5003;49185;42.320;23.198;2024-01-15T06:23:17;2369.33;2369.33;2369.33
72031;PMS5003;49185;42.320;23.198;2024-01-15T06:25:42;2372.33;2372.33;2372.33
72031;PMS5003;49185;42.320;23.198;2024-01-15T06:28:08;2373.33;2373.33;2373.33
72031;PMS5003;49185;42.320;23.198;2024-01-15T06:30:33;2369.33;2369.33;2369.33
72031;PMS5003;49185;42.320;23.198;2024-01-15T06:32:58;2373.33;2373.33;2373.33
72031;PMS5003;49185;42.320;23.198;2024-01-15T06:35:24;2383.67;2383.67;2383.67
72031;PMS5003;49185;42.320;23.198;2024-01-15T06:37:49;2386.33;2386.33;2386.33
72031;PMS5003;49185;42.320;23.198;2024-01-15T06:40:14;2391.33;2391.33;2391.33
72031;PMS5003;49185;42.320;23.198;2024-01-15T06:42:40;2386.33;2386.33;2386.33
72031;PMS5003;49185;42.320;23.198;2024-01-15T06:45:06;2388.50;2388.50;2388.50
72031;PMS5003;49185;42.320;23.198;2024-01-15T06:47:32;2391.00;2391.00;2391.00
72031;PMS5003;49185;42.320;23.198;2024-01-15T06:49:57;2391.33;2391.33;2391.33
72031;PMS5003;49185;42.320;23.198;2024-01-15T06:52:22;2392.33;2392.33;2392.33
72031;PMS5003;49185;42.320;23.198;2024-01-15T06:54:48;2402.33;2402.33;2402.33
72031;PMS5003;49185;42.320;23.198;2024-01-15T06:57:14;2403.50;2403.50;2403.50
72031;PMS5003;49185;42.320;23.198;2024-01-15T06:59:39;2417.33;2417.33;2417.33
72031;PMS5003;49185;42.320;23.198;2024-01-15T07:02:05;2413.67;2413.67;2413.67
72031;PMS5003;49185;42.320;23.198;2024-01-15T07:04:30;2422.67;2422.67;2422.67
72031;PMS5003;49185;42.320;23.198;2024-01-15T07:06:55;2439.67;2439.67;2439.67
72031;PMS5003;49185;42.320;23.198;2024-01-15T07:09:21;2436.67;2436.67;2436.67
72031;PMS5003;49185;42.320;23.198;2024-01-15T07:11:46;2442.67;2442.67;2442.67
72031;PMS5003;49185;42.320;23.198;2024-01-15T07:14:12;2454.00;2454.00;2454.00
72031;PMS5003;49185;42.320;23.198;2024-01-15T07:16:37;2460.50;2460.50;2460.50
72031;PMS5003;49185;42.320;23.198;2024-01-15T07:19:03;2470.67;2470.67;2470.67
72031;PMS5003;49185;42.320;23.198;2024-01-15T07:21:28;2473.67;2473.67;2473.67
72031;PMS5003;49185;42.320;23.198;2024-01-15T07:23:54;2485.00;2485.00;2485.00
72031;PMS5003;49185;42.320;23.198;2024-01-15T07:26:19;2491.00;2491.00;2491.00
72031;PMS5003;49185;42.320;23.198;2024-01-15T07:28:45;2498.00;2498.00;2498.00
72031;PMS5003;49185;42.320;23.198;2024-01-15T07:31:10;2510.33;2510.33;2510.33
72031;PMS5003;49185;42.320;23.198;2024-01-15T07:33:35;2516.33;2516.33;2516.33
72031;PMS5003;49185;42.320;23.198;2024-01-15T07:36:01;2518.33;2518.33;2518.33
72031;PMS5003;49185;42.320;23.198;2024-01-15T07:38:26;2521.33;2521.33;2521.33
72031;PMS5003;49185;42.320;23.198;2024-01-15T07:40:51;2519.33;2519.33;2519.33
72031;PMS5003;49185;42.320;23.198;2024-01-15T07:43:17;2519.33;2519.33;2519.33
72031;PMS5003;49185;42.320;23.198;2024-01-15T07:45:42;2512.33;2512.33;2512.33
72031;PMS5003;49185;42.320;23.198;2024-01-15T07:48:08;2515.33;2515.33;2515.33
72031;PMS5003;49185;42.320;23.198;2024-01-15T07:50:33;2518.33;2518.33;2518.33
72031;PMS5003;49185;42.320;23.198;2024-01-15T07:52:58;2528.33;2528.33;2528.33
72031;PMS5003;49185;42.320;23.198;2024-01-15T07:55:24;2519.33;2519.33;2519.33
72031;PMS5003;49185;42.320;23.198;2024-01-15T07:57:49;2525.33;2525.33;2525.33
72031;PMS5003;49185;42.320;23.198;2024-01-15T08:00:14;2535.00;2535.00;2535.00
72031;PMS5003;49185;42.320;23.198;2024-01-15T08:02:40;2538.50;2538.50;2538.50
72031;PMS5003;49185;42.320;23.198;2024-01-15T08:05:05;2525.33;2525.33;2525.33
72031;PMS5003;49185;42.320;23.198;2024-01-15T08:07:31;2518.33;2518.33;2518.33
72031;PMS5003;49185;42.320;23.198;2024-01-15T08:09:56;2515.33;2515.33;2515.33
72031;PMS5003;49185;42.320;23.198;2024-01-15T08:12:22;2525.33;2525.33;2525.33
72031;PMS5003;49185;42.320;23.198;2024-01-15T08:14:47;2527.33;2527.33;2527.33
72031;PMS5003;49185;42.320;23.198;2024-01-15T08:17:12;2518.33;2518.33;2518.33
72031;PMS5003;49185;42.320;23.198;2024-01-15T08:19:38;2532.00;2532.00;2532.00
72031;PMS5003;49185;42.320;23.198;2024-01-15T08:22:03;2525.33;2525.33;2525.33
72031;PMS5003;49185;42.320;23.198;2024-01-15T08:24:29;2541.00;2541.00;2541.00
72031;PMS5003;49185;42.320;23.198;2024-01-15T08:26:54;2538.00;2538.00;2538.00
72031;PMS5003;49185;42.320;23.198;2024-01-15T08:29:19;2552.33;2552.33;2552.33
72031;PMS5003;49185;42.320;23.198;2024-01-15T08:31:45;2553.33;2553.33;2553.33
72031;PMS5003;49185;42.320;23.198;2024-01-15T08:34:10;2550.33;2550.33;2550.33
72031;PMS5003;49185;42.320;23.198;2024-01-15T08:36:35;2549.33;2549.33;2549.33
72031;PMS5003;49185;42.320;23.198;2024-01-15T08:39:01;2544.33;2544.33;2544.33
72031;PMS5003;49185;42.320;23.198;2024-01-15T08:41:26;2541.00;2541.00;2541.00
72031;PMS5003;49185;42.320;23.198;2024-01-15T08:43:52;2532.00;2532.00;2532.00
72031;PMS5003;49185;42.320;23.198;2024-01-15T08:46:17;2531.00;2531.00;2531.00
72031;PMS5003;49185;42.320;23.198;2024-01-15T08:48:43;2543.00;2543.00;2543.00
72031;PMS5003;49185;42.320;23.198;2024-01-15T08:51:08;2532.00;2532.00;2532.00
72031;PMS5003;49185;42.320;23.198;2024-01-15T08:53:34;2546.33;2546.33;2546.33
72031;PMS5003;49185;42.320;23.198;2024-01-15T08:55:59;2552.33;2552.33;2552.33
72031;PMS5003;49185;42.320;23.198;2024-01-15T08:58:24;2550.33;2550.33;2550.33
72031;PMS5003;49185;42.320;23.198;2024-01-15T09:00:50;2541.00;2541.00;2541.00
72031;PMS5003;49185;42.320;23.198;2024-01-15T09:03:16;2548.00;2548.00;2548.00
72031;PMS5003;49185;42.320;23.198;2024-01-15T09:05:41;2535.00;2535.00;2535.00
72031;PMS5003;49185;42.320;23.198;2024-01-15T09:08:07;2541.00;2541.00;2541.00
72031;PMS5003;49185;42.320;23.198;2024-01-15T09:10:32;2543.00;2543.00;2543.00
72031;PMS5003;49185;42.320;23.198;2024-01-15T09:12:57;2553.33;2553.33;2553.33
72031;PMS5003;49185;42.320;23.198;2024-01-15T09:15:23;2575.33;2575.33;2575.33
72031;PMS5003;49185;42.320;23.198;2024-01-15T09:17:48;2594.67;2594.67;2594.67
72031;PMS5003;49185;42.320;23.198;2024-01-15T09:20:15;2604.67;2604.67;2604.67
72031;PMS5003;49185;42.320;23.198;2024-01-15T09:22:42;2623.00;2623.00;2623.00
72031;PMS5003;49185;42.320;23.198;2024-01-15T09:25:07;2646.67;2646.67;2646.67
72031;PMS5003;49185;42.320;23.198;2024-01-15T09:27:36;2648.00;2648.00;2648.00
72031;PMS5003;49185;42.320;23.198;2024-01-15T09:30:04;2655.00;2655.00;2655.00
72031;PMS5003;49185;42.320;23.198;2024-01-15T09:32:30;2662.00;2662.00;2662.00
72031;PMS5003;49185;42.320;23.198;2024-01-15T09:34:56;2664.67;2664.67;2664.67
72031;PMS5003;49185;42.320;23.198;2024-01-15T09:37:21;2671.00;2671.00;2671.00
72031;PMS5003;49185;42.320;23.198;2024-01-15T09:39:46;2695.33;2695.33;2695.33
72031;PMS5003;49185;42.320;23.198;2024-01-15T09:42:12;2692.00;2692.00;2692.00
72031;PMS5003;49185;42.320;23.198;2024-01-15T09:44:37;2713.33;2713.33;2713.33
72031;PMS5003;49185;42.320;23.198;2024-01-15T09:47:03;2708.33;2708.33;2708.33
72031;PMS5003;49185;42.320;23.198;2024-01-15T09:49:30;2717.50;2717.50;2717.50
72031;PMS5003;49185;42.320;23.198;2024-01-15T09:51:57;2719.00;2719.00;2719.00
72031;PMS5003;49185;42.320;23.198;2024-01-15T09:54:23;2733.50;2733.50;2733.50
72031;PMS5003;49185;42.320;23.198;2024-01-15T09:56:48;2748.67;2748.67;2748.67
72031;PMS5003;49185;42.320;23.198;2024-01-15T09:59:17;2752.67;2752.67;2752.67
72031;PMS5003;49185;42.320;23.198;2024-01-15T10:01:44;2740.50;2740.50;2740.50
72031;PMS5003;49185;42.320;23.198;2024-01-15T10:04:10;2740.50;2740.50;2740.50
72031;PMS5003;49185;42.320;23.198;2024-01-15T10:06:36;2738.50;2738.50;2738.50
72031;PMS5003;49185;42.320;23.198;2024-01-15T10:09:02;2757.00;2757.00;2757.00
72031;PMS5003;49185;42.320;23.198;2024-01-15T10:11:28;2756.33;2756.33;2756.33
72031;PMS5003;49185;42.320;23.198;2024-01-15T10:13:53;2741.67;2741.67;2741.67
72031;PMS5003;49185;42.320;23.198;2024-01-15T10:16:19;2742.50;2742.50;2742.50
72031;PMS5003;49185;42.320;23.198;2024-01-15T10:18:45;2744.33;2744.33;2744.33
72031;PMS5003;49185;42.320;23.198;2024-01-15T10:21:10;2741.67;2741.67;2741.67
72031;PMS5003;49185;42.320;23.198;2024-01-15T10:23:36;2741.67;2741.67;2741.67
72031;PMS5003;49185;42.320;23.198;2024-01-15T10:26:02;2738.33;2738.33;2738.33
72031;PMS5003;49185;42.320;23.198;2024-01-15T10:28:28;2742.50;2742.50;2742.50
72031;PMS5003;49185;42.320;23.198;2024-01-15T10:30:56;2738.50;2738.50;2738.50
72031;PMS5003;49185;42.320;23.198;2024-01-15T10:33:23;2733.50;2733.50;2733.50
72031;PMS5003;49185;42.320;23.198;2024-01-15T10:35:48;2734.33;2734.33;2734.33
72031;PMS5003;49185;42.320;23.198;2024-01-15T10:38:14;2719.00;2719.00;2719.00
72031;PMS5003;49185;42.320;23.198;2024-01-15T10:40:40;2737.00;2737.00;2737.00
72031;PMS5003;49185;42.320;23.198;2024-01-15T10:43:05;2731.33;2731.33;2731.33
72031;PMS5003;49185;42.320;23.198;2024-01-15T10:45:31;2712.00;2712.00;2712.00
72031;PMS5003;49185;42.320;23.198;2024-01-15T10:47:56;2708.33;2708.33;2708.33
72031;PMS5003;49185;42.320;23.198;2024-01-15T10:50:22;2708.33;2708.33;2708.33
72031;PMS5003;49185;42.320;23.198;2024-01-15T10:52:47;2720.33;2720.33;2720.33
72031;PMS5003;49185;42.320;23.198;2024-01-15T10:55:13;2699.00;2699.00;2699.00
72031;PMS5003;49185;42.320;23.198;2024-01-15T10:57:39;2726.00;2726.00;2726.00
72031;PMS5003;49185;42.320;23.198;2024-01-15T11:00:04;2730.00;2730.00;2730.00
72031;PMS5003;49185;42.320;23.198;2024-01-15T11:02:31;2735.50;2735.50;2735.50
72031;PMS5003;49185;42.320;23.198;2024-01-15T11:04:59;2724.50;2724.50;2724.50
72031;PMS5003;49185;42.320;23.198;2024-01-15T11:07:25;2720.33;2720.33;2720.33
72031;PMS5003;49185;42.320;23.198;2024-01-15T11:09:51;2720.50;2720.50;2720.50
72031;PMS5003;49185;42.320;23.198;2024-01-15T11:12:17;2720.33;2720.33;2720.33
72031;PMS5003;49185;42.320;23.198;2024-01-15T11:14:49;2720.33;2720.33;2720.33
72031;PMS5003;49185;42.320;23.198;2024-01-15T11:17:15;2706.50;2706.50;2706.50
72031;PMS5003;49185;42.320;23.198;2024-01-15T11:24:55;2687.50;2687.50;2687.50
72031;PMS5003;49185;42.320;23.198;2024-01-15T11:27:40;2690.50;2690.50;2690.50
72031;PMS5003;49185;42.320;23.198;2024-01-15T11:30:09;2684.00;2684.00;2684.00
72031;PMS5003;49185;42.320;23.198;2024-01-15T11:32:36;2696.00;2696.00;2696.00
72031;PMS5003;49185;42.320;23.198;2024-01-15T11:35:01;2699.50;2699.50;2699.50
72031;PMS5003;49185;42.320;23.198;2024-01-15T11:40:18;2717.50;2717.50;2717.50
72031;PMS5003;49185;42.320;23.198;2024-01-15T11:42:48;2735.50;2735.50;2735.50
72031;PMS5003;49185;42.320;23.198;2024-01-15T11:45:18;2724.50;2724.50;2724.50
72031;PMS5003;49185;42.320;23.198;2024-01-15T11:50:17;2737.00;2737.00;2737.00
72031;PMS5003;49185;42.320;23.198;2024-01-15T11:52:43;2768.00;2768.00;2768.00
72031;PMS5003;49185;42.320;23.198;2024-01-15T11:55:27;2777.00;2777.00;2777.00
72031;PMS5003;49185;42.320;23.198;2024-01-15T11:57:59;2790.00;2790.00;2790.00
72031;PMS5003;49185;42.320;23.198;2024-01-15T12:00:27;2766.00;2766.00;2766.00
72031;PMS5003;49185;42.320;23.198;2024-01-15T12:02:53;2777.00;2777.00;2777.00
72031;PMS5003;49185;42.320;23.198;2024-01-15T12:05:19;2808.00;2808.00;2808.00
72031;PMS5003;49185;42.320;23.198;2024-01-15T12:07:49;2807.00;2807.00;2807.00
72031;PMS5003;49185;42.320;23.198;2024-01-15T12:10:16;2814.50;2814.50;2814.50
72031;PMS5003;49185;42.320;23.198;2024-01-15T12:15:28;2810.50;2810.50;2810.50
72031;PMS5003;49185;42.320;23.198;2024-01-15T12:17:54;2822.50;2822.50;2822.50
72031;PMS5003;49185;42.320;23.198;2024-01-15T12:20:24;2843.50;2843.50;2843.50
72031;PMS5003;49185;42.320;23.198;2024-01-15T12:22:53;2847.50;2847.50;2847.50
72031;PMS5003;49185;42.320;23.198;2024-01-15T12:25:19;2845.67;2845.67;2845.67
72031;PMS5003;49185;42.320;23.198;2024-01-15T12:27:44;2837.50;2837.50;2837.50
72031;PMS5003;49185;42.320;23.198;2024-01-15T12:30:11;2851.50;2851.50;2851.50
72031;PMS5003;49185;42.320;23.198;2024-01-15T12:32:38;2843.50;2843.50;2843.50
72031;PMS5003;49185;42.320;23.198;2024-01-15T12:35:05;2831.50;2831.50;2831.50
72031;PMS5003;49185;42.320;23.198;2024-01-15T12:37:30;2829.50;2829.50;2829.50